Tuesday, March 19, 2019, 9:47 PM MDT
Back to Local

KSLC, Salt Lake City International Airport

Location: Salt Lake City, UT, United States Lat: 40.783
Local Time: 9:47 PM MDT ( 3:47 GMT) Lon: -111.967
Time Zone: US/Mountain Elev: 4225 ft

Show me the last for .
Show Decoded

2019-03-19 20:54 METAR KSLC 200254Z 09009KT 10SM FEW200 10/M07 A3017 RMK AO2 SLP209 T01001072
                 53002 =
2019-03-19 19:54 METAR KSLC 200154Z 09010KT 10SM FEW200 11/M07 A3016 RMK AO2 SLP208 T01061067 =
2019-03-19 18:54 METAR KSLC 200054Z 00000KT 10SM FEW180 12/M01 A3016 RMK AO2 SLP206 T01221011 =
2019-03-19 17:54 METAR KSLC 192354Z 27008KT 10SM FEW180 13/M02 A3016 RMK AO2 SLP203 T01331017
                 10144 20100 56012 =
2019-03-19 16:54 METAR KSLC 192254Z COR 22004KT 10SM FEW085 13/M03 A3017 RMK AO2 SLP204 T01331033
                 =
2019-03-19 15:54 METAR KSLC 192154Z 31007KT 10SM FEW085 14/M02 A3018 RMK AO2 SLP207 T01391017 =
2019-03-19 14:54 METAR KSLC 192054Z 32009KT 10SM FEW085 13/M02 A3020 RMK AO2 SLP214 T01331017
                 58014 =
2019-03-19 13:54 METAR KSLC 191954Z 34006KT 10SM FEW085 12/M02 A3023 RMK AO2 SLP224 T01221017 =
2019-03-19 12:54 METAR KSLC 191854Z 31007KT 10SM CLR 12/M01 A3024 RMK AO2 SLP227 T01171011 =
2019-03-19 11:54 METAR KSLC 191754Z 33006KT 10SM CLR 10/M01 A3025 RMK AO2 SLP233 T01001006 10100
                 20006 50004 =
2019-03-19 10:54 METAR KSLC 191654Z 28003KT 10SM CLR 08/M01 A3025 RMK AO2 SLP234 T00831006 =
2019-03-19 09:54 METAR KSLC 191554Z 00000KT 10SM CLR 07/M01 A3025 RMK AO2 SLP235 T00721011 =
2019-03-19 08:54 METAR KSLC 191454Z 00000KT 10SM CLR 03/M01 A3023 RMK AO2 SLP233 T00331011 53010
                 =
2019-03-19 07:54 METAR KSLC 191354Z 12005KT 10SM CLR 01/M02 A3021 RMK AO2 SLP228 T00111022 =
2019-03-19 06:54 METAR KSLC 191254Z 00000KT 10SM FEW200 01/M01 A3021 RMK AO2 SLP223 T00111011 =
2019-03-19 05:54 METAR KSLC 191154Z 21004KT 10SM FEW200 02/M01 A3020 RMK AO2 SLP216 T00221006
                 10061 20017 55000 =
2019-03-19 04:54 METAR KSLC 191054Z 00000KT 10SM FEW200 03/00 A3019 RMK AO2 SLP212 T00280000 =
2019-03-19 03:54 METAR KSLC 190954Z 00000KT 10SM FEW200 03/00 A3020 RMK AO2 SLP213 T00330000 =
2019-03-19 02:54 METAR KSLC 190854Z 00000KT 10SM FEW200 04/00 A3020 RMK AO2 SLP215 T00390000
                 53002 =
2019-03-19 01:54 METAR KSLC 190754Z 00000KT 10SM FEW200 04/00 A3020 RMK AO2 SLP212 T00440000 =
2019-03-19 00:54 METAR KSLC 190654Z 25003KT 10SM FEW200 05/01 A3019 RMK AO2 SLP212 T00500011
                 401440011 =
2019-03-18 23:54 METAR KSLC 190554Z 23004KT 10SM FEW200 06/01 A3020 RMK AO2 SLP213 T00560011
                 10128 20056 51009 =
2019-03-18 22:54 METAR KSLC 190454Z 13003KT 10SM FEW200 07/02 A3019 RMK AO2 SLP212 T00720022 =
2019-03-18 21:54 METAR KSLC 190354Z 27004KT 10SM FEW200 07/03 A3018 RMK AO2 SLP213 T00670028 =

Support USWX by starting your Amazon purchase here.